createdAt,value
2022-10-19T00:01:18.580Z,82.02
2022-10-19T00:06:26.285Z,83.37
2022-10-19T00:09:14.913Z,83.76
2022-10-19T00:11:45.348Z,84.04
2022-10-19T00:14:17.158Z,84.09
2022-10-19T00:16:46.039Z,84.56
2022-10-19T00:19:14.777Z,84.28
2022-10-19T00:21:41.802Z,84.53
2022-10-19T00:24:09.426Z,84.32
2022-10-19T00:26:36.602Z,83.68
2022-10-19T00:29:05.692Z,83.56
2022-10-19T00:31:33.107Z,83.16
2022-10-19T00:34:01.167Z,82.55
2022-10-19T00:36:29.664Z,82.50
2022-10-19T00:38:58.837Z,82.09
2022-10-19T00:41:30.800Z,82.06
2022-10-19T00:44:29.856Z,81.92
2022-10-19T00:47:05.105Z,81.69
2022-10-19T00:49:34.064Z,81.37
2022-10-19T00:52:11.938Z,81.52
2022-10-19T00:54:40.690Z,81.39
2022-10-19T00:57:08.846Z,81.63
2022-10-19T00:59:37.546Z,81.43
2022-10-19T01:02:05.979Z,81.54
2022-10-19T01:04:36.703Z,81.74
2022-10-19T01:07:05.494Z,81.93
2022-10-19T01:09:32.893Z,82.15
2022-10-19T01:12:30.090Z,82.14
2022-10-19T01:15:03.320Z,81.87
2022-10-19T01:17:31.570Z,81.51
2022-10-19T01:20:29.429Z,81.66
2022-10-19T01:23:29.999Z,82.11
2022-10-19T01:26:32.620Z,81.76
2022-10-19T01:29:11.952Z,82.03
2022-10-19T01:32:00.952Z,81.82
2022-10-19T01:34:55.966Z,81.76
2022-10-19T01:37:37.608Z,81.93
2022-10-19T01:40:15.383Z,81.78
2022-10-19T01:45:30.249Z,81.94
2022-10-19T01:48:10.009Z,81.85
2022-10-19T01:50:49.106Z,81.77
2022-10-19T01:53:19.847Z,82.24
2022-10-19T01:55:51.498Z,81.78
2022-10-19T01:58:24.964Z,81.83
2022-10-19T02:00:55.370Z,81.56
2022-10-19T02:03:24.979Z,82.39
2022-10-19T02:05:54.279Z,82.08
2022-10-19T02:08:30.438Z,82.05
2022-10-19T02:10:59.981Z,81.98
2022-10-19T02:13:29.394Z,82.23
2022-10-19T02:16:02.177Z,81.50
2022-10-19T02:18:34.395Z,81.66
2022-10-19T02:21:04.004Z,81.81
2022-10-19T02:23:31.397Z,81.15
2022-10-19T02:25:58.838Z,82.54
2022-10-19T02:31:00.085Z,83.33
2022-10-19T02:33:28.906Z,83.13
2022-10-19T02:35:56.559Z,83.25
2022-10-19T02:38:25.078Z,82.84
2022-10-19T02:41:07.445Z,82.69
2022-10-19T02:43:38.579Z,82.79
2022-10-19T02:46:21.441Z,82.83
2022-10-19T02:48:51.091Z,82.41
2022-10-19T02:51:36.891Z,83.06
2022-10-19T02:54:06.701Z,83.05
2022-10-19T02:56:35.458Z,82.64
2022-10-19T02:59:03.150Z,83.54
2022-10-19T03:01:30.210Z,82.94
2022-10-19T03:03:57.468Z,82.88
2022-10-19T03:06:24.580Z,82.66
2022-10-19T03:08:51.806Z,82.91
2022-10-19T03:11:18.793Z,84.33
2022-10-19T03:16:13.993Z,83.92
2022-10-19T03:18:41.440Z,83.78
2022-10-19T03:21:13.392Z,84.61
2022-10-19T03:23:40.825Z,84.25
2022-10-19T03:26:11.495Z,84.27
2022-10-19T03:28:41.187Z,84.54
2022-10-19T03:31:08.251Z,84.05
2022-10-19T03:33:35.514Z,85.04
2022-10-19T03:36:21.886Z,84.72
2022-10-19T03:38:53.745Z,83.93
2022-10-19T03:41:22.726Z,83.71
2022-10-19T03:43:50.101Z,83.92
2022-10-19T03:46:17.407Z,83.46
2022-10-19T03:48:45.104Z,82.86
2022-10-19T03:51:14.559Z,82.97
2022-10-19T03:53:41.941Z,83.88
2022-10-19T03:56:13.011Z,83.95
2022-10-19T03:58:42.294Z,83.95
2022-10-19T04:01:12.979Z,84.54
2022-10-19T04:03:41.245Z,84.51
2022-10-19T04:06:21.341Z,84.93
2022-10-19T04:08:50.262Z,85.19
2022-10-19T04:11:20.345Z,84.59
2022-10-19T04:13:52.404Z,84.40
2022-10-19T04:16:20.949Z,85.10
2022-10-19T04:18:48.662Z,84.70
2022-10-19T04:21:38.558Z,84.72
2022-10-19T04:24:10.608Z,84.36
2022-10-19T04:27:02.488Z,84.95
2022-10-19T04:29:32.413Z,84.51
2022-10-19T04:31:59.755Z,84.66
2022-10-19T04:34:28.298Z,84.37
2022-10-19T04:36:55.395Z,84.42
2022-10-19T04:39:22.625Z,84.12
2022-10-19T04:41:49.739Z,83.88
2022-10-19T04:44:17.889Z,83.98
2022-10-19T04:46:44.871Z,83.74
2022-10-19T04:49:16.472Z,83.88
2022-10-19T04:51:52.813Z,83.48
2022-10-19T04:54:20.091Z,83.42
2022-10-19T04:56:47.099Z,83.18
2022-10-19T04:59:16.844Z,83.24
2022-10-19T05:01:46.384Z,83.30
2022-10-19T05:04:14.620Z,82.96
2022-10-19T05:06:41.660Z,83.06
2022-10-19T05:09:08.872Z,83.03
2022-10-19T05:11:36.026Z,82.33
2022-10-19T05:14:04.537Z,82.25
2022-10-19T05:16:34.066Z,82.19
2022-10-19T05:19:03.603Z,82.33
2022-10-19T05:21:31.081Z,82.19
2022-10-19T05:23:58.446Z,82.45
2022-10-19T05:26:27.193Z,82.46
2022-10-19T05:29:00.819Z,82.15
2022-10-19T05:31:29.952Z,82.44
2022-10-19T05:33:57.748Z,82.14
2022-10-19T05:36:34.901Z,82.48
2022-10-19T05:39:23.044Z,82.46
2022-10-19T05:41:50.239Z,81.84
2022-10-19T05:44:22.665Z,82.07
2022-10-19T05:46:51.112Z,81.52
2022-10-19T05:49:22.216Z,81.60
2022-10-19T05:51:50.789Z,81.30
2022-10-19T05:54:20.361Z,80.96
2022-10-19T05:56:50.060Z,81.34
2022-10-19T05:59:19.713Z,81.14
2022-10-19T06:01:47.451Z,80.83
2022-10-19T06:06:45.736Z,80.38
2022-10-19T06:09:13.253Z,80.70
2022-10-19T06:11:42.312Z,80.12
2022-10-19T06:14:12.596Z,79.17
2022-10-19T06:16:40.667Z,78.77
2022-10-19T06:19:08.101Z,77.39
2022-10-19T06:21:36.059Z,77.23
2022-10-19T06:24:05.864Z,76.39
2022-10-19T06:26:34.973Z,75.89
2022-10-19T06:29:03.765Z,74.62
2022-10-19T06:31:32.214Z,73.97
2022-10-19T06:34:00.973Z,73.20
2022-10-19T06:36:30.957Z,72.30
2022-10-19T06:39:01.833Z,71.26
2022-10-19T06:41:30.537Z,70.72
2022-10-19T06:43:58.456Z,70.77
2022-10-19T06:46:27.682Z,70.66
2022-10-19T06:49:00.820Z,70.27
2022-10-19T06:51:29.421Z,70.44
2022-10-19T06:54:00.649Z,69.25
2022-10-19T06:56:27.781Z,69.08
2022-10-19T06:58:55.903Z,69.04
2022-10-19T07:01:24.458Z,68.62
2022-10-19T07:03:52.898Z,68.18
2022-10-19T07:06:20.496Z,68.01
2022-10-19T07:08:48.889Z,67.37
2022-10-19T07:11:18.349Z,65.90
2022-10-19T07:13:45.749Z,65.40
2022-10-19T07:16:17.978Z,64.63
2022-10-19T07:18:48.469Z,63.82
2022-10-19T07:21:16.877Z,63.31
2022-10-19T07:23:47.181Z,63.33
2022-10-19T07:26:28.345Z,62.92
2022-10-19T07:28:57.351Z,62.02
2022-10-19T07:31:26.567Z,61.45
2022-10-19T07:33:55.585Z,61.16
2022-10-19T07:36:24.062Z,61.39
2022-10-19T07:38:51.843Z,60.66
2022-10-19T07:41:21.139Z,59.98
2022-10-19T07:43:49.960Z,59.97
2022-10-19T07:46:19.701Z,59.60
2022-10-19T07:48:47.555Z,59.53
2022-10-19T07:51:16.545Z,59.46
2022-10-19T07:53:44.196Z,59.77
2022-10-19T07:56:22.916Z,59.53
2022-10-19T07:58:51.356Z,59.50
2022-10-19T08:01:23.786Z,59.06
2022-10-19T08:04:48.739Z,58.74
2022-10-19T08:06:43.644Z,59.01
2022-10-19T08:09:23.030Z,58.84
2022-10-19T08:11:59.169Z,58.39
2022-10-19T08:14:26.847Z,58.00
2022-10-19T08:16:54.422Z,57.71
2022-10-19T08:19:22.754Z,57.76
2022-10-19T08:21:52.174Z,57.79
2022-10-19T08:24:20.916Z,57.79
2022-10-19T08:26:51.275Z,57.54
2022-10-19T08:29:26.644Z,57.77
2022-10-19T08:32:02.010Z,57.82
2022-10-19T08:34:29.250Z,57.65
2022-10-19T08:36:58.908Z,57.40
2022-10-19T08:39:28.123Z,56.71
2022-10-19T08:42:16.514Z,56.65
2022-10-19T08:45:15.501Z,53.55
2022-10-19T08:48:01.225Z,48.76
2022-10-19T08:50:45.339Z,45.72
2022-10-19T08:53:19.744Z,42.69
2022-10-19T08:56:26.837Z,41.27
2022-10-19T08:59:18.965Z,40.70
2022-10-19T09:01:51.801Z,37.23
2022-10-19T09:07:31.489Z,36.57
2022-10-19T09:10:10.948Z,35.66
2022-10-19T09:12:55.100Z,35.64
2022-10-19T09:15:40.184Z,35.10
2022-10-19T09:18:29.098Z,35.12
2022-10-19T09:21:06.478Z,34.84
2022-10-19T09:23:55.350Z,34.45
2022-10-19T09:26:27.973Z,33.60
2022-10-19T09:29:04.798Z,33.58
2022-10-19T09:31:40.231Z,33.21
2022-10-19T09:34:21.723Z,34.62
2022-10-19T09:36:57.503Z,35.24
2022-10-19T09:39:29.341Z,34.85
2022-10-19T09:42:26.491Z,34.20
2022-10-19T09:44:55.157Z,35.38
2022-10-19T09:47:39.143Z,38.35
2022-10-19T09:50:18.405Z,40.92
2022-10-19T09:52:55.434Z,42.48
2022-10-19T09:55:45.712Z,44.68
2022-10-19T09:58:29.232Z,46.08
2022-10-19T10:01:02.071Z,46.04
2022-10-19T10:03:36.357Z,46.08
2022-10-19T10:06:07.275Z,46.76
2022-10-19T10:08:38.192Z,48.24
2022-10-19T10:11:24.918Z,49.40
2022-10-19T10:13:54.567Z,50.45
2022-10-19T10:16:24.674Z,52.01
2022-10-19T10:18:57.036Z,52.52
2022-10-19T10:21:27.613Z,52.81
2022-10-19T10:24:16.932Z,53.03
2022-10-19T10:26:47.144Z,52.80
2022-10-19T10:29:25.939Z,52.80
2022-10-19T10:32:09.165Z,52.69
2022-10-19T10:34:51.910Z,52.37
2022-10-19T10:37:32.549Z,52.27
2022-10-19T10:40:03.902Z,52.30
2022-10-19T10:42:45.747Z,52.70
2022-10-19T10:45:24.249Z,52.78
2022-10-19T10:47:53.056Z,52.84
2022-10-19T10:50:27.938Z,53.40
2022-10-19T10:53:03.855Z,53.67
2022-10-19T10:55:32.800Z,53.76
2022-10-19T10:58:26.861Z,54.18
2022-10-19T11:01:01.100Z,54.30
2022-10-19T11:03:33.259Z,53.42
2022-10-19T11:06:02.706Z,52.96
2022-10-19T11:08:52.376Z,52.10
2022-10-19T11:11:24.554Z,52.16
2022-10-19T11:14:46.186Z,51.49
2022-10-19T11:17:36.956Z,50.68
2022-10-19T11:20:07.885Z,50.54
2022-10-19T11:22:48.125Z,51.25
2022-10-19T11:25:25.224Z,51.95
2022-10-19T11:28:15.329Z,52.06
2022-10-19T11:31:06.758Z,52.25
2022-10-19T11:33:48.173Z,52.61
2022-10-19T11:36:46.401Z,52.70
2022-10-19T11:39:58.377Z,53.11
2022-10-19T11:42:26.507Z,53.67
2022-10-19T11:45:00.197Z,53.51
2022-10-19T11:47:53.050Z,53.73
2022-10-19T11:50:44.074Z,53.83
2022-10-19T11:53:48.932Z,53.46
2022-10-19T11:57:01.855Z,53.35
2022-10-19T11:59:42.692Z,52.64
2022-10-19T12:02:29.230Z,53.50
2022-10-19T12:05:16.391Z,53.65
2022-10-19T12:08:08.977Z,54.08
2022-10-19T12:10:45.689Z,53.81
2022-10-19T12:13:20.496Z,53.71
2022-10-19T12:15:54.809Z,53.54
2022-10-19T12:18:56.676Z,53.83
2022-10-19T12:21:39.218Z,54.41
2022-10-19T12:24:27.067Z,54.42
2022-10-19T12:26:58.459Z,54.21
2022-10-19T12:29:34.473Z,54.52
2022-10-19T12:32:03.237Z,54.20
2022-10-19T12:34:38.499Z,54.83
2022-10-19T12:37:08.436Z,54.85
2022-10-19T12:39:41.512Z,55.04
2022-10-19T12:42:31.971Z,55.44
2022-10-19T12:45:44.159Z,55.73
2022-10-19T12:48:20.040Z,55.84
2022-10-19T12:50:48.195Z,55.93
2022-10-19T12:53:27.483Z,56.07
2022-10-19T12:56:15.477Z,55.85
2022-10-19T12:58:50.069Z,55.63
2022-10-19T13:01:25.917Z,55.44
2022-10-19T13:04:16.806Z,54.52
2022-10-19T13:07:06.338Z,53.15
2022-10-19T13:09:43.471Z,53.51
2022-10-19T13:12:26.030Z,54.40
2022-10-19T13:15:01.405Z,54.36
2022-10-19T13:17:36.923Z,54.41
2022-10-19T13:20:19.430Z,54.63
2022-10-19T13:23:04.922Z,55.29
2022-10-19T13:25:34.415Z,56.58
2022-10-19T13:28:07.997Z,57.39
2022-10-19T13:30:40.309Z,58.41
2022-10-19T13:33:47.800Z,58.44
2022-10-19T13:36:15.762Z,58.96
2022-10-19T13:38:59.379Z,59.14
2022-10-19T13:41:49.443Z,59.19
2022-10-19T13:44:19.223Z,59.89
2022-10-19T13:46:55.640Z,60.00
2022-10-19T13:49:57.211Z,60.29
2022-10-19T13:52:50.739Z,60.97
2022-10-19T13:56:08.129Z,60.72
2022-10-19T13:59:32.016Z,60.71
2022-10-19T14:02:39.360Z,60.95
2022-10-19T14:05:41.964Z,61.31
2022-10-19T14:08:11.282Z,61.00
2022-10-19T14:13:30.581Z,61.65
2022-10-19T14:16:01.836Z,61.59
2022-10-19T14:18:30.873Z,61.79
2022-10-19T14:21:09.052Z,61.26
2022-10-19T14:23:40.166Z,61.48
2022-10-19T14:26:15.340Z,61.83
2022-10-19T14:29:00.926Z,62.11
2022-10-19T14:34:20.513Z,61.93
2022-10-19T14:36:49.623Z,62.04
2022-10-19T14:39:25.370Z,62.39
2022-10-19T14:41:55.906Z,62.75
2022-10-19T14:44:41.229Z,62.53
2022-10-19T14:47:30.927Z,62.54
2022-10-19T14:50:09.794Z,62.21
2022-10-19T14:52:43.191Z,62.75
2022-10-19T14:55:17.859Z,62.81
2022-10-19T14:57:49.274Z,63.06
2022-10-19T15:00:32.317Z,63.22
2022-10-19T15:03:09.755Z,63.52
2022-10-19T15:05:42.131Z,63.55
2022-10-19T15:08:15.613Z,63.57
2022-10-19T15:10:48.546Z,64.21
2022-10-19T15:13:27.008Z,64.75
2022-10-19T15:15:55.625Z,64.67
2022-10-19T15:18:48.288Z,64.31
2022-10-19T15:21:21.858Z,65.12
2022-10-19T15:23:53.026Z,64.92
2022-10-19T15:26:25.662Z,64.82
2022-10-19T15:28:56.850Z,64.90
2022-10-19T15:31:28.374Z,65.75
2022-10-19T15:34:05.781Z,66.26
2022-10-19T15:36:33.862Z,66.30
2022-10-19T15:39:18.214Z,67.06
2022-10-19T15:41:54.187Z,66.65
2022-10-19T15:44:55.910Z,66.88
2022-10-19T15:47:25.901Z,67.09
2022-10-19T15:50:25.542Z,67.04
2022-10-19T15:52:52.575Z,67.48
2022-10-19T15:55:19.819Z,67.45
2022-10-19T15:58:01.460Z,67.89
2022-10-19T16:00:30.165Z,68.07
2022-10-19T16:02:59.605Z,68.84
2022-10-19T16:05:36.850Z,69.06
2022-10-19T16:08:25.347Z,69.79
2022-10-19T16:10:59.087Z,69.44
2022-10-19T16:13:30.858Z,69.45
2022-10-19T16:16:11.543Z,70.04
2022-10-19T16:18:39.246Z,69.78
2022-10-19T16:21:07.692Z,70.43
2022-10-19T16:23:39.542Z,70.21
2022-10-19T16:26:14.549Z,70.57
2022-10-19T16:28:42.983Z,70.93
2022-10-19T16:31:13.652Z,71.55
2022-10-19T16:33:40.766Z,71.30
2022-10-19T16:36:09.239Z,71.45
2022-10-19T16:44:39.472Z,72.63
2022-10-19T16:47:56.893Z,72.05
2022-10-19T16:53:58.107Z,72.56
2022-10-19T16:56:28.369Z,73.03
2022-10-19T16:59:04.789Z,72.95
2022-10-19T17:01:36.350Z,73.53
2022-10-19T17:04:05.657Z,74.13
2022-10-19T17:06:34.403Z,73.88
2022-10-19T17:11:49.962Z,74.28
2022-10-19T17:14:17.054Z,74.33
2022-10-19T17:16:44.414Z,74.64
2022-10-19T17:19:12.887Z,74.44
2022-10-19T17:21:46.518Z,74.97
2022-10-19T17:24:24.443Z,75.21
2022-10-19T17:26:53.168Z,76.08
2022-10-19T17:29:23.954Z,76.46
2022-10-19T17:37:29.420Z,76.02
2022-10-19T17:39:56.660Z,75.39
2022-10-19T17:42:23.932Z,75.43
2022-10-19T17:44:56.599Z,75.39
2022-10-19T17:50:07.822Z,75.67
2022-10-19T17:52:35.516Z,75.75
2022-10-19T17:57:48.251Z,75.86
2022-10-19T18:00:15.709Z,75.87
2022-10-19T18:06:24.124Z,76.55
2022-10-19T18:08:55.503Z,76.70
2022-10-19T18:11:35.147Z,77.18
2022-10-19T18:14:07.059Z,76.79
2022-10-19T18:16:38.290Z,76.98
2022-10-19T18:19:07.487Z,76.73
2022-10-19T18:24:23.590Z,76.38
2022-10-19T18:26:51.739Z,76.47
2022-10-19T18:29:22.494Z,76.37
2022-10-19T18:31:59.797Z,76.54
2022-10-19T18:34:32.562Z,76.53
2022-10-19T18:37:03.139Z,76.34
2022-10-19T18:39:32.312Z,76.32
2022-10-19T18:45:04.989Z,76.23
2022-10-19T18:47:32.331Z,76.21
2022-10-19T18:49:59.283Z,75.80
2022-10-19T18:52:28.558Z,75.80
2022-10-19T18:54:55.599Z,75.81
2022-10-19T18:57:42.876Z,76.00
2022-10-19T19:00:10.861Z,75.62
2022-10-19T19:02:46.340Z,75.23
2022-10-19T19:05:15.147Z,75.13
2022-10-19T19:07:42.557Z,75.15
2022-10-19T19:10:09.640Z,75.03
2022-10-19T19:12:39.540Z,74.37
2022-10-19T19:15:09.992Z,73.98
2022-10-19T19:17:39.351Z,72.97
2022-10-19T19:20:09.966Z,72.52
2022-10-19T19:22:46.973Z,72.11
2022-10-19T19:25:16.523Z,71.78
2022-10-19T19:27:50.991Z,71.07
2022-10-19T19:30:20.888Z,70.69
2022-10-19T19:32:48.937Z,69.88
2022-10-19T19:35:16.022Z,68.46
2022-10-19T19:37:47.127Z,67.33
2022-10-19T19:40:18.887Z,67.29
2022-10-19T19:42:52.247Z,65.36
2022-10-19T19:45:19.361Z,63.45
2022-10-19T19:47:46.747Z,63.32
2022-10-19T19:50:14.180Z,62.65
2022-10-19T19:52:42.658Z,61.84
2022-10-19T19:55:09.771Z,60.81
2022-10-19T19:57:37.570Z,60.74
2022-10-19T20:00:05.655Z,60.51
2022-10-19T20:02:37.447Z,59.64
2022-10-19T20:05:04.778Z,59.64
2022-10-19T20:07:32.256Z,58.72
2022-10-19T20:09:59.376Z,58.92
2022-10-19T20:12:29.441Z,58.52
2022-10-19T20:14:56.654Z,58.18
2022-10-19T20:17:25.160Z,58.30
2022-10-19T20:19:52.579Z,58.00
2022-10-19T20:22:24.244Z,57.93
2022-10-19T20:24:52.160Z,57.77
2022-10-19T20:27:19.692Z,57.64
2022-10-19T20:29:47.997Z,57.63
2022-10-19T20:32:16.311Z,57.36
2022-10-19T20:34:44.653Z,57.69
2022-10-19T20:37:12.019Z,57.28
2022-10-19T20:39:41.610Z,57.45
2022-10-19T20:42:09.259Z,57.17
2022-10-19T20:44:36.581Z,57.23
2022-10-19T20:47:03.792Z,57.26
2022-10-19T20:52:15.457Z,57.56
2022-10-19T20:54:43.494Z,56.83
2022-10-19T20:57:13.561Z,57.36
2022-10-19T20:59:41.626Z,57.20
2022-10-19T21:02:10.970Z,56.98
2022-10-19T21:04:38.061Z,57.15
2022-10-19T21:07:06.406Z,57.14
2022-10-19T21:09:33.689Z,56.90
2022-10-19T21:12:05.429Z,57.13
2022-10-19T21:14:33.605Z,56.76
2022-10-19T21:17:02.038Z,56.96
2022-10-19T21:19:31.493Z,56.88
2022-10-19T21:22:10.480Z,56.29
2022-10-19T21:24:41.973Z,56.42
2022-10-19T21:27:09.896Z,56.31
2022-10-19T21:29:38.047Z,55.87
2022-10-19T21:32:06.380Z,56.22
2022-10-19T21:34:33.970Z,56.42
2022-10-19T21:37:01.511Z,56.31
2022-10-19T21:39:29.470Z,56.22
2022-10-19T21:41:57.397Z,56.47
2022-10-19T21:44:24.407Z,56.27
2022-10-19T21:46:51.842Z,56.08
2022-10-19T21:49:19.050Z,56.21
2022-10-19T21:51:53.664Z,56.08
2022-10-19T21:54:26.622Z,56.21
2022-10-19T21:56:55.957Z,56.04
2022-10-19T21:59:23.034Z,56.53
2022-10-19T22:01:50.486Z,56.59
2022-10-19T22:04:18.605Z,56.48
2022-10-19T22:06:46.827Z,56.53
2022-10-19T22:09:17.342Z,56.60
2022-10-19T22:11:45.570Z,56.86
2022-10-19T22:14:14.002Z,56.49
2022-10-19T22:16:41.894Z,56.55
2022-10-19T22:19:10.152Z,56.99
2022-10-19T22:24:09.609Z,57.48
2022-10-19T22:26:42.168Z,57.62
2022-10-19T22:29:09.542Z,57.73
2022-10-19T22:31:37.299Z,58.04
2022-10-19T22:34:06.979Z,58.48
2022-10-19T22:36:34.534Z,58.74
2022-10-19T22:39:01.898Z,58.39
2022-10-19T22:41:29.345Z,58.89
2022-10-19T22:43:56.322Z,59.20
2022-10-19T22:46:23.525Z,59.49
2022-10-19T22:48:50.475Z,59.79
2022-10-19T22:51:17.709Z,60.05
2022-10-19T22:53:45.251Z,60.13
2022-10-19T22:56:12.911Z,60.69
2022-10-19T22:58:40.383Z,60.58
2022-10-19T23:01:12.766Z,60.92
2022-10-19T23:03:40.918Z,61.50
2022-10-19T23:06:09.533Z,61.41
2022-10-19T23:08:37.178Z,61.57
2022-10-19T23:11:05.051Z,61.58
2022-10-19T23:13:32.049Z,62.02
2022-10-19T23:15:59.335Z,61.98
2022-10-19T23:18:26.665Z,62.43
2022-10-19T23:20:59.322Z,62.53
2022-10-19T23:23:27.133Z,62.91
2022-10-19T23:26:04.897Z,63.21
2022-10-19T23:28:33.650Z,63.36
2022-10-19T23:31:24.454Z,63.24
2022-10-19T23:33:53.277Z,63.82
2022-10-19T23:36:27.091Z,63.98
2022-10-19T23:38:56.117Z,64.21
2022-10-19T23:41:24.180Z,64.13
2022-10-19T23:43:51.321Z,64.43
2022-10-19T23:46:18.890Z,64.62
2022-10-19T23:48:45.908Z,64.39
2022-10-19T23:51:15.587Z,64.75
2022-10-19T23:53:44.969Z,64.80
2022-10-19T23:56:19.613Z,65.35
2022-10-19T23:58:47.355Z,65.47
